Pagina principale
METAR-TAF:

METAR-TAF

Aeroporti :

Annecy, Francia

latitudine: 45-55-45N, longitudine: 006-05-56E, altezza: 463 m

Osservazione

Il bollettino è stato emesso 26 minuti fa, alle 04:30 UTC
Vento 12 kt da nord/nord-est
Temperature 4°C
Umidità 75%
Pressione 1015 hPa
Visibilità 10 km o più
Cielo coperto ad un'altezza di 2500 ft

METAR: LFLP 300430Z AUTO 02012KT 9999 OVC025 04/00 Q1015

Ora: 06:56 (04:56 UTC)


TAF: mancante

Osservazioni e previsioni meteorologiche di più di 4000 aeroporti (messaggi METAR e TAF).

Le stazioni disponibili sono rappresentate dai dischi gialli e rossi sulla carta.

Puntare il mouse per vedere il nome della stazione.

Clicca sopra per visualizzare le osservazioni e previsioni meteorologiche.

Per cambiare la mappa : fare clic sui pulsanti verdi con una croce nera per ingrandire, il pulsante verde con un trattino per diminuire, o sulla freccia verde per le mappe adiacenti.


METAR-TAF: